Time;durP1;ratioP1;P1;durP2;ratioP2;P2;SDS_P1;SDS_P2;PMS_P1;PMS_P2;Temp;Humidity;BMP_temperature;BMP_pressure;BME280_temperature;BME280_humidity;BME280_pressure;Samples;Min_cycle;Max_cycle;Signal;HPM_P1;HPM_P2
2022/12/04 00:00:53;;;;;;;64.00;58.30;;;2.40;99.90;;;;;;4757514;30;20427;-66
2022/12/04 00:03:19;;;;;;;63.25;57.47;;;2.50;99.90;;;;;;4757348;30;20442;-67
2022/12/04 00:05:45;;;;;;;62.53;57.03;;;2.50;99.90;;;;;;4754815;30;20419;-66
2022/12/04 00:08:11;;;;;;;62.78;57.33;;;2.50;99.90;;;;;;4758246;30;20546;-66
2022/12/04 00:10:42;;;;;;;60.50;54.72;;;2.40;99.90;;;;;;4757751;30;20458;-66
2022/12/04 00:13:08;;;;;;;62.03;56.53;;;2.40;99.90;;;;;;4756050;30;20414;-65
2022/12/04 00:15:33;;;;;;;61.97;56.47;;;2.40;99.90;;;;;;4756102;30;20441;-65
2022/12/04 00:17:59;;;;;;;64.07;58.47;;;2.50;99.90;;;;;;4756692;30;20483;-68
2022/12/04 00:20:24;;;;;;;64.65;59.05;;;2.40;99.90;;;;;;4758087;30;20411;-66
2022/12/04 00:22:50;;;;;;;63.00;57.47;;;2.40;99.90;;;;;;4759585;30;20806;-66
2022/12/04 00:25:16;;;;;;;64.07;58.73;;;2.40;99.90;;;;;;4761083;30;20419;-66
2022/12/04 00:27:41;;;;;;;62.88;57.47;;;2.40;99.90;;;;;;4760630;30;20434;-66
2022/12/04 00:30:07;;;;;;;62.35;57.20;;;2.40;99.90;;;;;;4762642;30;20466;-66
2022/12/04 00:32:33;;;;;;;65.45;59.97;;;2.40;99.90;;;;;;4766752;30;20501;-66
2022/12/04 00:34:58;;;;;;;64.32;58.90;;;2.40;99.90;;;;;;4765968;30;20924;-66
2022/12/04 00:37:24;;;;;;;62.05;56.65;;;2.50;99.90;;;;;;4765339;30;20422;-66
2022/12/04 00:39:50;;;;;;;63.65;58.28;;;2.50;99.90;;;;;;4768633;30;20469;-66
2022/12/04 00:42:15;;;;;;;66.50;61.00;;;2.50;99.90;;;;;;4766758;30;20442;-67
2022/12/04 00:44:41;;;;;;;64.37;58.67;;;2.50;99.90;;;;;;4767384;30;20733;-66
2022/12/04 00:47:07;;;;;;;61.88;56.63;;;2.50;99.90;;;;;;4763892;30;20494;-66
2022/12/04 00:49:32;;;;;;;62.08;56.92;;;2.50;99.90;;;;;;4762513;30;20407;-66
2022/12/04 00:51:58;;;;;;;63.97;58.47;;;2.40;99.90;;;;;;4763823;30;20692;-66
2022/12/04 00:54:23;;;;;;;65.57;60.27;;;2.50;99.90;;;;;;4764238;30;20418;-66
2022/12/04 00:56:49;;;;;;;62.78;57.58;;;2.40;99.90;;;;;;4763985;30;20938;-59
2022/12/04 00:59:14;;;;;;;80.20;74.18;;;2.40;99.90;;;;;;4769096;30;20435;-58
2022/12/04 01:01:40;;;;;;;77.00;70.82;;;2.60;99.90;;;;;;4770422;30;20438;-65
2022/12/04 01:04:06;;;;;;;66.73;61.33;;;3.40;99.90;;;;;;4767924;30;20944;-65
2022/12/04 01:06:32;;;;;;;62.13;56.53;;;3.10;99.90;;;;;;4767169;30;20724;-65
2022/12/04 01:09:00;;;;;;;58.40;53.50;;;2.90;99.90;;;;;;4768464;30;20484;-65
2022/12/04 01:11:27;;;;;;;58.20;53.25;;;2.80;99.90;;;;;;4768199;30;20410;-65
2022/12/04 01:13:53;;;;;;;57.30;52.37;;;2.70;99.90;;;;;;4768691;30;20437;-65
2022/12/04 01:16:21;;;;;;;75.47;69.23;;;2.60;99.90;;;;;;4767219;30;20418;-64
2022/12/04 01:18:48;;;;;;;48.53;44.03;;;4.30;99.90;;;;;;4766737;30;20407;-65
2022/12/04 01:21:13;;;;;;;44.57;39.97;;;5.00;99.90;;;;;;4768649;30;20492;-66
2022/12/04 01:23:39;;;;;;;43.57;39.20;;;4.80;99.90;;;;;;4767617;30;20415;-66
2022/12/04 01:26:05;;;;;;;44.10;39.70;;;4.00;99.90;;;;;;4758807;30;20417;-66
2022/12/04 01:28:30;;;;;;;44.37;39.97;;;3.60;99.90;;;;;;4768079;30;20678;-66
2022/12/04 01:31:05;;;;;;;48.50;43.90;;;3.30;99.90;;;;;;4766141;30;20411;-66
2022/12/04 01:33:33;;;;;;;46.78;42.30;;;3.10;99.90;;;;;;4763214;30;20411;-65
2022/12/04 01:36:00;;;;;;;46.17;41.65;;;2.90;99.90;;;;;;4758946;30;20411;-65
2022/12/04 01:38:27;;;;;;;47.63;42.92;;;2.80;99.90;;;;;;4764380;30;20399;-66
2022/12/04 01:40:54;;;;;;;48.20;43.40;;;2.70;99.90;;;;;;4761766;30;20655;-65
2022/12/04 01:43:20;;;;;;;46.88;42.28;;;2.70;99.90;;;;;;4758248;30;21004;-66
2022/12/04 01:45:50;;;;;;;49.25;44.50;;;2.60;99.90;;;;;;4759468;30;20899;-66
2022/12/04 01:48:29;;;;;;;49.08;44.42;;;2.60;99.90;;;;;;4759156;30;20408;-66
2022/12/04 01:51:01;;;;;;;51.08;46.10;;;2.60;99.90;;;;;;4770317;30;20702;-66
2022/12/04 01:53:29;;;;;;;51.75;46.95;;;2.60;99.90;;;;;;4763795;30;20430;-66
2022/12/04 01:55:55;;;;;;;52.88;47.83;;;2.50;99.90;;;;;;4765786;30;20665;-66
2022/12/04 01:58:27;;;;;;;50.15;45.40;;;2.50;99.90;;;;;;4760191;30;20516;-66
2022/12/04 02:00:57;;;;;;;50.55;45.80;;;2.50;99.90;;;;;;4749199;30;20420;-66
2022/12/04 02:03:22;;;;;;;52.65;47.53;;;2.50;99.90;;;;;;4731929;30;20417;-66
2022/12/04 02:05:48;;;;;;;56.23;50.80;;;2.50;99.90;;;;;;4732124;30;20505;-65
2022/12/04 02:08:13;;;;;;;53.00;48.10;;;2.50;99.90;;;;;;4731702;30;20413;-65
2022/12/04 02:11:13;;;;;;;53.90;48.70;;;2.50;99.90;;;;;;4736101;30;20416;-65
2022/12/04 02:13:42;;;;;;;55.40;50.33;;;2.50;99.90;;;;;;4730576;30;20760;-66
2022/12/04 02:16:14;;;;;;;50.80;45.97;;;2.50;99.90;;;;;;4739208;30;20435;-66
2022/12/04 02:18:53;;;;;;;55.88;50.45;;;2.50;99.90;;;;;;4731523;30;20416;-66
2022/12/04 02:21:37;;;;;;;56.47;51.17;;;2.50;99.90;;;;;;4732206;30;20755;-66
2022/12/04 02:24:33;;;;;;;53.70;48.60;;;2.50;99.90;;;;;;4732454;30;20605;-66
2022/12/04 02:27:04;;;;;;;55.78;50.63;;;2.50;99.90;;;;;;4747866;30;20833;-66
2022/12/04 02:29:44;;;;;;;55.20;50.20;;;2.50;99.90;;;;;;4731200;30;20412;-66
2022/12/04 02:32:18;;;;;;;60.47;55.00;;;2.50;99.90;;;;;;4745117;30;20706;-66
2022/12/04 02:34:53;;;;;;;59.80;54.40;;;2.50;99.90;;;;;;4748657;30;20409;-66
2022/12/04 02:37:28;;;;;;;62.97;57.40;;;2.40;99.90;;;;;;4748563;30;20495;-66
2022/12/04 02:40:09;;;;;;;58.67;53.58;;;2.40;99.90;;;;;;4743029;30;20421;-66
2022/12/04 02:42:47;;;;;;;59.83;54.47;;;2.50;99.90;;;;;;4732347;30;20444;-66
2022/12/04 02:45:25;;;;;;;61.45;55.78;;;2.50;99.90;;;;;;4733584;30;20494;-66
2022/12/04 02:47:52;;;;;;;62.28;56.65;;;2.50;99.90;;;;;;4749170;30;20409;-66
2022/12/04 02:50:21;;;;;;;63.22;57.45;;;2.50;99.90;;;;;;4733347;30;20746;-66
2022/12/04 02:52:52;;;;;;;61.08;55.67;;;2.50;99.90;;;;;;4747736;30;20436;-67
2022/12/04 02:55:46;;;;;;;61.83;56.35;;;2.40;99.90;;;;;;4734660;30;20504;-66
2022/12/04 02:58:21;;;;;;;60.13;54.83;;;2.50;99.90;;;;;;4732780;30;20428;-67
2022/12/04 03:00:49;;;;;;;64.32;58.75;;;2.50;99.90;;;;;;4734968;30;20420;-66
2022/12/04 03:03:23;;;;;;;61.15;55.75;;;2.50;99.90;;;;;;4734765;30;20487;-67
2022/12/04 03:06:16;;;;;;;63.25;57.60;;;2.50;99.90;;;;;;4750882;30;20708;-67
2022/12/04 03:08:50;;;;;;;61.65;56.25;;;2.50;99.90;;;;;;4733555;30;20507;-67
2022/12/04 03:11:16;;;;;;;62.33;56.97;;;2.50;99.90;;;;;;4734387;30;20650;-67
2022/12/04 03:14:01;;;;;;;60.75;55.40;;;2.50;99.90;;;;;;4748600;30;20462;-67
2022/12/04 03:16:37;;;;;;;62.55;56.92;;;2.50;99.90;;;;;;4748516;30;20416;-67
2022/12/04 03:19:25;;;;;;;61.30;55.90;;;2.50;99.90;;;;;;4733592;30;20416;-67
2022/12/04 03:21:58;;;;;;;61.28;55.78;;;2.50;99.90;;;;;;4748189;30;20421;-67
2022/12/04 03:24:29;;;;;;;60.03;54.67;;;2.50;99.90;;;;;;4747042;30;20428;-67
2022/12/04 03:26:59;;;;;;;61.20;55.85;;;2.50;99.90;;;;;;4731761;30;20424;-67
2022/12/04 03:29:37;;;;;;;63.03;57.55;;;2.50;99.90;;;;;;4734532;30;20898;-67
2022/12/04 03:32:24;;;;;;;60.65;55.35;;;2.50;99.90;;;;;;4732104;30;20748;-67
2022/12/04 03:34:52;;;;;;;67.50;61.65;;;2.50;99.90;;;;;;4731723;30;20693;-67
2022/12/04 03:37:33;;;;;;;61.78;56.30;;;2.50;99.90;;;;;;4730112;30;20724;-67
2022/12/04 03:40:10;;;;;;;60.33;55.03;;;2.50;99.90;;;;;;4743388;30;20416;-67
2022/12/04 03:42:57;;;;;;;62.97;57.23;;;2.50;99.90;;;;;;4747089;30;20449;-67
2022/12/04 03:45:42;;;;;;;59.70;54.42;;;2.50;99.90;;;;;;4732324;30;20409;-67
2022/12/04 03:48:35;;;;;;;61.47;56.07;;;2.50;99.90;;;;;;4749316;30;20471;-67
2022/12/04 03:51:18;;;;;;;62.78;57.40;;;2.50;99.90;;;;;;4733808;30;20423;-70
2022/12/04 03:53:54;;;;;;;66.05;60.22;;;2.50;99.90;;;;;;4736908;30;20431;-67
2022/12/04 03:56:31;;;;;;;62.75;57.42;;;2.50;99.90;;;;;;4733892;30;20601;-67
2022/12/04 03:59:03;;;;;;;61.33;55.95;;;2.50;99.90;;;;;;4733488;30;20496;-67
2022/12/04 04:01:35;;;;;;;60.63;55.53;;;2.50;99.90;;;;;;4748346;30;20432;-67
2022/12/04 04:04:04;;;;;;;62.43;57.07;;;2.50;99.90;;;;;;4732792;30;20438;-66
2022/12/04 04:06:44;;;;;;;62.33;57.05;;;2.50;99.90;;;;;;4732481;30;20806;-66
2022/12/04 04:09:16;;;;;;;61.45;56.25;;;2.50;99.90;;;;;;4731636;30;20554;-66
2022/12/04 04:11:48;;;;;;;66.32;60.38;;;2.50;99.90;;;;;;4730098;30;20416;-66
2022/12/04 04:25:39;;;;;;;63.65;58.35;;;2.40;99.90;;;;;;4750827;30;20404;-66
2022/12/04 04:28:04;;;;;;;65.93;60.55;;;2.50;99.90;;;;;;4735261;30;20416;-66
2022/12/04 04:30:33;;;;;;;63.83;58.53;;;2.50;99.90;;;;;;4735577;30;20428;-66
2022/12/04 04:33:15;;;;;;;64.90;59.28;;;2.50;99.90;;;;;;4736066;30;20706;-66
2022/12/04 04:35:56;;;;;;;61.20;56.30;;;2.50;99.90;;;;;;4736302;30;20412;-66
2022/12/04 04:38:40;;;;;;;67.35;61.78;;;2.50;99.90;;;;;;4737386;30;20423;-66
2022/12/04 04:41:18;;;;;;;60.70;55.60;;;2.40;99.90;;;;;;4738470;30;20417;-66
2022/12/04 04:44:04;;;;;;;63.78;58.38;;;2.50;99.90;;;;;;4738630;30;20526;-66
2022/12/04 04:46:37;;;;;;;65.88;60.25;;;2.50;99.90;;;;;;4741616;30;20503;-66
2022/12/04 04:49:07;;;;;;;67.65;61.67;;;2.50;99.90;;;;;;4738872;30;20411;-66
2022/12/04 04:51:33;;;;;;;69.15;63.38;;;2.50;99.90;;;;;;4737828;30;20829;-66
2022/12/04 04:54:04;;;;;;;67.10;61.17;;;2.50;99.90;;;;;;4735949;30;20753;-66
2022/12/04 04:56:30;;;;;;;66.68;61.05;;;2.50;99.90;;;;;;4735083;30;20691;-66
2022/12/04 04:58:55;;;;;;;69.60;63.90;;;2.40;99.90;;;;;;4736020;30;20440;-66
2022/12/04 05:01:27;;;;;;;68.00;62.20;;;2.50;99.90;;;;;;4734963;30;20439;-66
2022/12/04 05:03:53;;;;;;;65.73;60.07;;;2.50;99.90;;;;;;4751016;30;20782;-66
2022/12/04 05:06:18;;;;;;;66.00;60.20;;;2.50;99.90;;;;;;4750235;30;20475;-66
2022/12/04 05:08:45;;;;;;;65.03;59.70;;;2.50;99.90;;;;;;4735086;30;20409;-66
2022/12/04 05:11:13;;;;;;;65.93;60.33;;;2.50;99.90;;;;;;4747403;30;20499;-66
2022/12/04 05:13:39;;;;;;;63.15;57.75;;;2.50;99.90;;;;;;4741664;30;20413;-66
2022/12/04 05:16:09;;;;;;;62.90;57.58;;;2.50;99.90;;;;;;4733902;30;20404;-66
2022/12/04 05:18:35;;;;;;;67.95;62.05;;;2.60;99.90;;;;;;4750786;30;20412;-66
2022/12/04 05:21:18;;;;;;;65.00;59.30;;;2.50;99.90;;;;;;4751350;30;20647;-66
2022/12/04 05:23:44;;;;;;;66.43;60.87;;;2.50;99.90;;;;;;4734469;30;20440;-66
2022/12/04 05:26:10;;;;;;;64.32;58.85;;;2.50;99.90;;;;;;4733651;30;20861;-66
2022/12/04 05:28:36;;;;;;;67.10;61.50;;;2.50;99.90;;;;;;4734839;30;20451;-67
2022/12/04 05:31:02;;;;;;;64.90;59.50;;;2.50;99.90;;;;;;4736252;30;20517;-66
2022/12/04 05:33:29;;;;;;;68.90;63.30;;;2.50;99.90;;;;;;4751633;30;20412;-66
2022/12/04 05:36:06;;;;;;;65.68;60.25;;;2.50;99.90;;;;;;4736284;30;20431;-66
2022/12/04 05:38:32;;;;;;;63.90;58.58;;;2.50;99.90;;;;;;4734885;30;20416;-66
2022/12/04 05:41:00;;;;;;;65.03;59.67;;;2.50;99.90;;;;;;4747896;30;20405;-66
2022/12/04 05:43:26;;;;;;;66.77;61.37;;;2.50;99.90;;;;;;4748184;30;20516;-66
2022/12/04 05:45:52;;;;;;;67.28;61.60;;;2.50;99.90;;;;;;4748369;30;20421;-66
2022/12/04 05:48:17;;;;;;;71.20;65.28;;;2.50;99.90;;;;;;4749608;30;20844;-66
2022/12/04 05:50:43;;;;;;;66.55;61.05;;;2.50;99.90;;;;;;4736948;30;20709;-66
2022/12/04 05:53:09;;;;;;;69.00;63.10;;;2.50;99.90;;;;;;4734301;30;20698;-66
2022/12/04 05:55:34;;;;;;;67.37;61.77;;;2.50;99.90;;;;;;4731660;30;20425;-66
2022/12/04 05:58:00;;;;;;;68.83;63.10;;;2.50;99.90;;;;;;4733504;30;20428;-66
2022/12/04 06:00:26;;;;;;;67.93;61.97;;;2.50;99.90;;;;;;4732923;30;20429;-66
2022/12/04 06:02:51;;;;;;;66.13;60.55;;;2.50;99.90;;;;;;4732479;30;20440;-66
2022/12/04 06:05:17;;;;;;;69.73;63.93;;;2.50;99.90;;;;;;4747112;30;20588;-67
2022/12/04 06:07:42;;;;;;;67.80;62.13;;;2.50;99.90;;;;;;4731141;30;20412;-66
2022/12/04 06:10:08;;;;;;;68.90;63.13;;;2.50;99.90;;;;;;4746091;30;20415;-66
2022/12/04 06:12:34;;;;;;;70.10;64.37;;;2.50;99.90;;;;;;4730614;30;20949;-66
2022/12/04 06:14:59;;;;;;;67.50;61.95;;;2.50;99.90;;;;;;4731802;30;20412;-66
2022/12/04 06:17:25;;;;;;;65.77;60.30;;;2.60;99.90;;;;;;4745541;30;20420;-66
2022/12/04 06:19:52;;;;;;;67.90;62.33;;;2.60;99.90;;;;;;4731253;30;20576;-66
2022/12/04 06:22:18;;;;;;;65.53;60.30;;;2.50;99.90;;;;;;4731102;30;20439;-66
2022/12/04 06:24:43;;;;;;;66.75;61.08;;;2.60;99.90;;;;;;4748647;30;20743;-66
2022/12/04 06:27:10;;;;;;;69.18;63.22;;;2.60;99.90;;;;;;4734402;30;20448;-66
2022/12/04 06:29:35;;;;;;;74.55;68.22;;;2.60;99.90;;;;;;4734773;30;20664;-66
2022/12/04 06:32:01;;;;;;;68.03;62.25;;;2.50;99.90;;;;;;4734236;30;20683;-66
2022/12/04 06:34:27;;;;;;;70.50;64.73;;;2.50;99.90;;;;;;4732914;30;20524;-66
2022/12/04 06:36:52;;;;;;;73.73;67.50;;;2.50;99.90;;;;;;4736304;30;20519;-67
2022/12/04 06:39:18;;;;;;;68.97;63.27;;;2.50;99.90;;;;;;4735982;30;20423;-67
2022/12/04 06:41:43;;;;;;;70.50;64.53;;;2.50;99.90;;;;;;4735357;30;20465;-67
2022/12/04 06:44:09;;;;;;;70.28;64.28;;;2.60;99.90;;;;;;4734535;30;20959;-66
2022/12/04 06:46:35;;;;;;;67.67;61.87;;;2.50;99.90;;;;;;4733799;30;20806;-66
2022/12/04 06:49:01;;;;;;;71.28;65.47;;;2.60;99.90;;;;;;4734138;30;20412;-67
2022/12/04 06:51:34;;;;;;;72.22;66.00;;;2.60;99.90;;;;;;4750290;30;20451;-66
2022/12/04 06:54:00;;;;;;;73.97;67.63;;;2.60;99.90;;;;;;4749280;30;20434;-66
2022/12/04 06:56:28;;;;;;;76.45;69.93;;;2.60;99.90;;;;;;4734997;30;20412;-66
2022/12/04 06:58:56;;;;;;;67.60;61.78;;;2.60;99.90;;;;;;4734224;30;20986;-66
2022/12/04 07:01:25;;;;;;;67.20;61.33;;;2.60;99.90;;;;;;4748638;30;20535;-66
2022/12/04 07:03:51;;;;;;;68.75;62.70;;;2.60;99.90;;;;;;4732258;30;20481;-66
2022/12/04 07:06:28;;;;;;;69.33;63.43;;;2.60;99.90;;;;;;4732719;30;20451;-66
2022/12/04 07:08:58;;;;;;;68.80;62.78;;;2.60;99.90;;;;;;4731250;30;20725;-66
2022/12/04 07:11:24;;;;;;;69.47;63.67;;;2.60;99.90;;;;;;4731501;30;20742;-66
2022/12/04 07:13:50;;;;;;;69.03;63.33;;;2.70;99.90;;;;;;4737987;30;20437;-66
2022/12/04 07:16:17;;;;;;;71.25;65.25;;;2.70;99.90;;;;;;4730114;30;20412;-66
2022/12/04 07:18:44;;;;;;;72.70;66.63;;;2.70;99.90;;;;;;4728489;30;21034;-66
2022/12/04 07:21:15;;;;;;;70.18;64.25;;;2.70;99.90;;;;;;4728306;30;20459;-66
2022/12/04 07:23:40;;;;;;;72.43;66.07;;;2.70;99.90;;;;;;4745336;30;20443;-66
2022/12/04 07:26:08;;;;;;;72.73;66.30;;;2.70;99.90;;;;;;4726015;30;20448;-66
2022/12/04 07:28:35;;;;;;;72.05;65.88;;;2.70;99.90;;;;;;4742576;30;20459;-66
2022/12/04 07:31:09;;;;;;;66.18;60.22;;;2.70;99.90;;;;;;4742499;30;20421;-66
2022/12/04 07:33:36;;;;;;;69.65;63.53;;;2.70;99.90;;;;;;4724867;30;20636;-67
2022/12/04 07:36:03;;;;;;;69.80;63.50;;;2.70;99.90;;;;;;4726589;30;20533;-67
2022/12/04 07:38:30;;;;;;;67.53;61.53;;;2.70;99.90;;;;;;4725143;30;20408;-66
2022/12/04 07:40:57;;;;;;;73.00;66.75;;;2.70;99.90;;;;;;4738612;30;20697;-66
2022/12/04 07:43:23;;;;;;;73.95;67.60;;;2.70;99.90;;;;;;4728283;30;20476;-66
2022/12/04 07:45:48;;;;;;;72.22;66.00;;;2.70;99.90;;;;;;4726613;30;20482;-66
2022/12/04 07:48:14;;;;;;;70.45;64.43;;;2.70;99.90;;;;;;4733846;30;20420;-66
2022/12/04 07:50:39;;;;;;;71.90;65.23;;;2.70;99.90;;;;;;4726511;30;20409;-66
2022/12/04 07:53:05;;;;;;;76.77;70.07;;;2.70;99.90;;;;;;4725194;30;20497;-66
2022/12/04 07:55:30;;;;;;;73.97;67.50;;;2.70;99.90;;;;;;4737029;30;20533;-66
2022/12/04 07:57:56;;;;;;;72.40;66.03;;;2.70;99.90;;;;;;4723602;30;20688;-66
2022/12/04 08:00:22;;;;;;;72.10;65.70;;;2.80;99.90;;;;;;4722136;30;20477;-66
2022/12/04 08:02:49;;;;;;;71.13;64.72;;;2.80;99.90;;;;;;4737423;30;20425;-66
2022/12/04 08:05:15;;;;;;;72.68;66.43;;;2.80;99.90;;;;;;4735913;30;20541;-66
2022/12/04 08:07:40;;;;;;;70.80;64.63;;;2.80;99.90;;;;;;4736951;30;20710;-66
2022/12/04 08:10:07;;;;;;;74.63;67.97;;;2.80;99.90;;;;;;4724865;30;20608;-66
2022/12/04 08:12:32;;;;;;;82.85;75.57;;;2.90;99.90;;;;;;4724346;30;20439;-66
2022/12/04 08:14:58;;;;;;;75.23;68.50;;;2.90;99.90;;;;;;4726875;30;20421;-66
2022/12/04 08:17:24;;;;;;;69.63;63.30;;;2.90;99.90;;;;;;4726176;30;20711;-65
2022/12/04 08:19:49;;;;;;;74.68;68.13;;;2.80;99.90;;;;;;4725218;30;20694;-65
2022/12/04 08:22:15;;;;;;;69.90;63.97;;;2.90;99.90;;;;;;4740110;30;20725;-65
2022/12/04 08:24:41;;;;;;;76.33;69.40;;;2.90;99.90;;;;;;4724902;30;20412;-65
2022/12/04 08:27:06;;;;;;;70.80;64.37;;;2.90;99.90;;;;;;4739096;30;20425;-65
2022/12/04 08:29:32;;;;;;;69.87;63.57;;;2.90;99.90;;;;;;4736633;30;20786;-65
2022/12/04 08:31:58;;;;;;;71.83;65.43;;;2.90;99.90;;;;;;4738858;30;20469;-65
2022/12/04 08:34:23;;;;;;;74.35;67.65;;;2.90;99.90;;;;;;4724828;30;20707;-65
2022/12/04 08:36:49;;;;;;;72.53;66.15;;;2.90;99.90;;;;;;4725420;30;20630;-65
2022/12/04 08:39:15;;;;;;;72.35;65.88;;;2.90;99.90;;;;;;4737634;30;20420;-65
2022/12/04 08:41:41;;;;;;;74.15;67.40;;;2.90;99.90;;;;;;4727340;30;20448;-65
2022/12/04 08:44:08;;;;;;;74.60;67.88;;;2.90;99.90;;;;;;4724000;30;20424;-65
2022/12/04 08:46:33;;;;;;;74.55;67.95;;;2.90;99.90;;;;;;4724524;30;20470;-66
2022/12/04 08:48:59;;;;;;;73.77;66.90;;;3.00;99.90;;;;;;4722931;30;20693;-66
2022/12/04 08:51:28;;;;;;;69.40;63.17;;;3.00;99.90;;;;;;4736936;30;20428;-65
2022/12/04 08:53:59;;;;;;;72.22;65.80;;;3.00;99.90;;;;;;4721915;30;20438;-66
2022/12/04 08:56:27;;;;;;;72.38;65.97;;;3.10;99.90;;;;;;4732305;30;20689;-65
2022/12/04 08:58:54;;;;;;;70.32;63.95;;;3.10;99.90;;;;;;4723035;30;20546;-66
2022/12/04 09:01:20;;;;;;;68.30;62.40;;;3.10;99.90;;;;;;4741521;30;20866;-66
2022/12/04 09:03:46;;;;;;;71.85;65.65;;;3.20;99.90;;;;;;4733767;30;20413;-65
2022/12/04 09:06:13;;;;;;;69.83;63.37;;;3.20;99.90;;;;;;4731341;30;20419;-65
2022/12/04 09:08:39;;;;;;;73.68;67.03;;;3.20;99.90;;;;;;4727633;30;20404;-66
2022/12/04 09:11:13;;;;;;;73.00;66.45;;;3.20;99.90;;;;;;4725736;30;20482;-66
2022/12/04 09:13:39;;;;;;;74.27;67.97;;;3.20;99.90;;;;;;4725500;30;20524;-66
2022/12/04 09:16:08;;;;;;;70.35;63.90;;;3.10;99.90;;;;;;4727220;30;20408;-66
2022/12/04 09:18:35;;;;;;;70.78;64.93;;;3.20;99.90;;;;;;4722428;30;20506;-66
2022/12/04 09:21:05;;;;;;;71.85;65.60;;;3.20;99.90;;;;;;4723329;30;20428;-66
2022/12/04 09:23:32;;;;;;;73.20;66.68;;;3.20;99.90;;;;;;4739491;30;20420;-66
2022/12/04 09:25:58;;;;;;;69.95;63.70;;;3.30;99.90;;;;;;4723785;30;20405;-66
2022/12/04 09:28:24;;;;;;;72.20;65.72;;;3.30;99.90;;;;;;4722534;30;20455;-66
2022/12/04 09:31:01;;;;;;;74.40;67.80;;;3.30;99.90;;;;;;4738816;30;20474;-66
2022/12/04 09:33:27;;;;;;;66.65;60.78;;;3.30;99.90;;;;;;4739148;30;20702;-67
2022/12/04 09:35:53;;;;;;;68.23;62.47;;;3.30;99.90;;;;;;4739208;30;20397;-66
2022/12/04 09:38:19;;;;;;;65.73;60.00;;;3.40;99.90;;;;;;4725235;30;20419;-67
2022/12/04 09:40:49;;;;;;;66.65;60.67;;;3.40;99.90;;;;;;4735374;30;20423;-66
2022/12/04 09:43:31;;;;;;;69.20;63.15;;;3.40;99.90;;;;;;4721780;30;20447;-66
2022/12/04 09:46:04;;;;;;;70.78;64.75;;;3.40;99.90;;;;;;4725596;30;20887;-66
2022/12/04 09:48:36;;;;;;;70.57;64.25;;;3.40;99.90;;;;;;4726397;30;21006;-66
2022/12/04 09:51:04;;;;;;;68.43;62.58;;;3.40;99.90;;;;;;4738366;30;20953;-66
2022/12/04 09:53:44;;;;;;;67.00;61.30;;;3.50;99.90;;;;;;4743438;30;20413;-67
2022/12/04 09:56:13;;;;;;;67.80;62.10;;;3.50;99.90;;;;;;4728759;30;20522;-66
2022/12/04 09:58:44;;;;;;;68.80;63.05;;;3.50;99.90;;;;;;4729921;30;20440;-66
2022/12/04 10:01:28;;;;;;;68.47;62.45;;;3.60;99.90;;;;;;4728506;30;20416;-66
2022/12/04 10:03:55;;;;;;;65.40;59.97;;;3.50;99.90;;;;;;4728559;30;20885;-66
2022/12/04 10:06:28;;;;;;;69.30;63.53;;;3.60;99.90;;;;;;4727925;30;20899;-66
2022/12/04 10:09:04;;;;;;;69.63;63.80;;;3.60;99.90;;;;;;4727849;30;20421;-66
2022/12/04 10:12:04;;;;;;;66.00;60.60;;;3.70;99.90;;;;;;4725158;30;20539;-66
2022/12/04 10:14:55;;;;;;;69.55;63.60;;;3.80;99.90;;;;;;4726818;30;20416;-66
2022/12/04 10:17:26;;;;;;;62.80;57.42;;;3.80;99.90;;;;;;4726581;30;20408;-66
2022/12/04 10:19:57;;;;;;;63.25;57.95;;;3.80;99.90;;;;;;4727524;30;20427;-66
2022/12/04 10:22:37;;;;;;;65.53;60.28;;;3.80;99.90;;;;;;4736631;30;20428;-66
2022/12/04 10:25:25;;;;;;;63.35;58.10;;;3.80;99.90;;;;;;4725808;30;20503;-66
2022/12/04 10:27:56;;;;;;;64.32;58.75;;;3.80;99.90;;;;;;4739531;30;20502;-66
2022/12/04 10:30:25;;;;;;;68.63;63.20;;;3.80;99.90;;;;;;4722564;30;20404;-66
2022/12/04 10:33:15;;;;;;;65.22;59.83;;;3.80;99.90;;;;;;4723830;30;20417;-66
2022/12/04 10:35:42;;;;;;;65.85;60.85;;;3.80;99.90;;;;;;4722996;30;20421;-66
2022/12/04 10:38:31;;;;;;;65.38;59.83;;;3.80;99.90;;;;;;4740039;30;20545;-67
2022/12/04 10:41:03;;;;;;;66.05;60.45;;;3.80;99.90;;;;;;4717994;30;20508;-66
2022/12/04 10:43:41;;;;;;;67.97;62.22;;;3.80;99.90;;;;;;4735131;30;20783;-67
2022/12/04 10:46:14;;;;;;;67.97;62.55;;;3.80;99.90;;;;;;4724988;30;20409;-66
2022/12/04 10:48:42;;;;;;;70.35;64.57;;;3.80;99.90;;;;;;4724523;30;20800;-66
2022/12/04 10:51:20;;;;;;;63.55;58.40;;;3.80;99.90;;;;;;4724786;30;20968;-67
2022/12/04 10:53:48;;;;;;;63.93;58.83;;;3.90;99.90;;;;;;4725107;30;20494;-67
2022/12/04 10:56:22;;;;;;;66.38;61.13;;;3.90;99.90;;;;;;4724795;30;20423;-67
2022/12/04 10:59:03;;;;;;;67.93;62.38;;;3.80;99.90;;;;;;4722356;30;20443;-67
2022/12/04 11:01:34;;;;;;;67.57;61.93;;;3.80;99.90;;;;;;4723923;30;20694;-67
2022/12/04 11:04:09;;;;;;;63.13;58.05;;;3.80;99.90;;;;;;4724344;30;20759;-66
2022/12/04 11:06:35;;;;;;;64.55;59.08;;;3.80;99.90;;;;;;4724378;30;20420;-66
2022/12/04 11:09:02;;;;;;;66.37;60.77;;;3.80;99.90;;;;;;4740840;30;20487;-67
2022/12/04 11:11:33;;;;;;;66.68;61.42;;;3.90;99.90;;;;;;4730880;30;20408;-67
2022/12/04 11:14:31;;;;;;;64.05;58.70;;;3.80;99.90;;;;;;4731899;30;20416;-67
2022/12/04 11:17:05;;;;;;;65.32;60.20;;;3.90;99.90;;;;;;4713414;30;20424;-67
2022/12/04 11:19:35;;;;;;;67.45;61.83;;;3.90;99.90;;;;;;4742990;30;20462;-66
2022/12/04 11:22:11;;;;;;;66.83;61.47;;;3.90;99.90;;;;;;4748647;30;20428;-67
2022/12/04 11:24:41;;;;;;;61.63;56.63;;;3.90;99.90;;;;;;4731821;30;21104;-67
2022/12/04 11:27:15;;;;;;;64.10;58.72;;;4.00;99.90;;;;;;4747550;30;20431;-67
2022/12/04 11:29:44;;;;;;;65.90;60.60;;;4.00;99.90;;;;;;4732454;30;20484;-66
2022/12/04 11:32:25;;;;;;;62.85;57.78;;;4.00;99.90;;;;;;4747620;30;20507;-67
2022/12/04 11:34:54;;;;;;;64.05;59.08;;;4.00;99.90;;;;;;4730950;30;20412;-67
2022/12/04 11:37:26;;;;;;;65.38;60.22;;;4.00;99.90;;;;;;4728881;30;20433;-67
2022/12/04 11:39:52;;;;;;;64.07;59.10;;;4.00;99.90;;;;;;4731467;30;20417;-66
2022/12/04 11:42:24;;;;;;;65.65;60.22;;;4.00;99.90;;;;;;4730846;30;20436;-67
2022/12/04 11:44:57;;;;;;;63.70;58.47;;;4.00;99.90;;;;;;4729660;30;20516;-66
2022/12/04 11:47:27;;;;;;;62.65;57.83;;;4.00;99.90;;;;;;4729707;30;20537;-66
2022/12/04 11:50:20;;;;;;;65.05;59.70;;;4.00;99.90;;;;;;4730822;30;21040;-66
2022/12/04 11:52:58;;;;;;;64.70;59.37;;;4.00;99.90;;;;;;4730312;30;20512;-66
2022/12/04 11:55:45;;;;;;;67.18;61.55;;;4.00;99.90;;;;;;4728971;30;20417;-66
2022/12/04 11:58:10;;;;;;;63.55;58.25;;;4.10;99.90;;;;;;4743064;30;20777;-66
2022/12/04 12:01:00;;;;;;;64.57;59.28;;;4.10;99.90;;;;;;4758803;30;20843;-66
2022/12/04 12:04:03;;;;;;;68.35;63.05;;;4.10;99.90;;;;;;4758111;30;20451;-63
2022/12/04 12:06:52;;;;;;;64.38;59.10;;;4.10;99.90;;;;;;4745347;30;20410;-63
2022/12/04 12:09:32;;;;;;;67.38;61.72;;;4.10;99.90;;;;;;4755467;30;20407;-68
2022/12/04 12:12:09;;;;;;;65.15;59.95;;;4.10;99.90;;;;;;4753309;30;21117;-66
2022/12/04 12:15:11;;;;;;;65.45;59.97;;;4.10;99.90;;;;;;4752230;30;20422;-66
2022/12/04 12:17:41;;;;;;;64.45;59.33;;;4.10;99.90;;;;;;4731166;30;20413;-67
2022/12/04 12:20:34;;;;;;;61.42;56.60;;;4.10;99.90;;;;;;4750882;30;20480;-66
2022/12/04 12:23:21;;;;;;;65.57;60.13;;;4.20;99.90;;;;;;4753514;30;20642;-66
2022/12/04 12:26:16;;;;;;;63.97;58.83;;;4.20;99.90;;;;;;4750115;30;20445;-66
2022/12/04 12:29:09;;;;;;;65.90;60.45;;;4.20;99.90;;;;;;4751540;30;20514;-66
2022/12/04 12:31:52;;;;;;;64.97;59.55;;;4.20;99.90;;;;;;4753008;30;20403;-66
2022/12/04 12:34:34;;;;;;;65.47;60.05;;;4.20;99.90;;;;;;4754040;30;20442;-66
2022/12/04 12:37:24;;;;;;;66.30;60.90;;;4.10;99.90;;;;;;4756817;30;20425;-65
2022/12/04 12:40:01;;;;;;;65.28;60.25;;;4.20;99.90;;;;;;4755933;30;20483;-67
2022/12/04 12:42:36;;;;;;;66.35;61.05;;;4.20;99.90;;;;;;4757902;30;20438;-67
2022/12/04 12:45:33;;;;;;;64.35;59.35;;;4.30;99.90;;;;;;4759460;30;20422;-66
2022/12/04 12:48:08;;;;;;;63.15;58.05;;;4.30;99.90;;;;;;4752610;30;20834;-66
2022/12/04 12:51:01;;;;;;;69.45;63.95;;;4.30;99.90;;;;;;4761704;30;20423;-67
2022/12/04 12:53:35;;;;;;;70.07;64.40;;;4.30;99.90;;;;;;4763476;30;20445;-67
2022/12/04 12:56:03;;;;;;;66.95;61.60;;;4.30;99.90;;;;;;4762579;30;20426;-66
2022/12/04 12:58:32;;;;;;;64.20;59.00;;;4.30;99.90;;;;;;4762400;30;20438;-66
2022/12/04 13:01:09;;;;;;;63.17;58.07;;;4.30;99.90;;;;;;4760182;30;20498;-66
2022/12/04 13:03:57;;;;;;;61.95;56.95;;;4.30;99.90;;;;;;4760100;30;20499;-67
2022/12/04 13:06:29;;;;;;;63.13;58.22;;;4.30;99.90;;;;;;4762028;30;20395;-66
2022/12/04 13:09:02;;;;;;;63.35;58.42;;;4.40;99.90;;;;;;4760196;30;20456;-66